sensor_id;sensor_type;location;lat;lon;timestamp;temperature;humidity
22716;DHT22;11525;51.152;4.456;2024-03-22T00:01:50;13.70;99.90
22716;DHT22;11525;51.152;4.456;2024-03-22T00:04:16;13.60;99.90
22716;DHT22;11525;51.152;4.456;2024-03-22T00:06:42;13.70;99.90
22716;DHT22;11525;51.152;4.456;2024-03-22T00:09:09;13.70;99.90
22716;DHT22;11525;51.152;4.456;2024-03-22T00:11:35;13.70;99.90
22716;DHT22;11525;51.152;4.456;2024-03-22T00:14:01;13.70;99.90
22716;DHT22;11525;51.152;4.456;2024-03-22T00:16:27;13.70;99.90
22716;DHT22;11525;51.152;4.456;2024-03-22T00:18:53;13.70;99.90
22716;DHT22;11525;51.152;4.456;2024-03-22T00:21:18;13.90;99.90
22716;DHT22;11525;51.152;4.456;2024-03-22T00:23:45;13.90;99.90
22716;DHT22;11525;51.152;4.456;2024-03-22T00:26:11;13.90;99.90
22716;DHT22;11525;51.152;4.456;2024-03-22T00:28:36;13.80;99.90
22716;DHT22;11525;51.152;4.456;2024-03-22T00:31:02;13.70;99.90
22716;DHT22;11525;51.152;4.456;2024-03-22T00:33:28;13.70;99.90
22716;DHT22;11525;51.152;4.456;2024-03-22T00:35:53;13.70;99.90
22716;DHT22;11525;51.152;4.456;2024-03-22T00:38:19;13.70;99.90
22716;DHT22;11525;51.152;4.456;2024-03-22T00:40:45;13.50;99.90
22716;DHT22;11525;51.152;4.456;2024-03-22T00:43:10;13.50;99.90
22716;DHT22;11525;51.152;4.456;2024-03-22T00:45:36;13.40;99.90
22716;DHT22;11525;51.152;4.456;2024-03-22T00:48:02;13.40;99.90
22716;DHT22;11525;51.152;4.456;2024-03-22T00:50:27;13.40;99.90
22716;DHT22;11525;51.152;4.456;2024-03-22T00:52:54;13.40;99.90
22716;DHT22;11525;51.152;4.456;2024-03-22T00:55:23;13.40;99.90
22716;DHT22;11525;51.152;4.456;2024-03-22T00:57:49;13.30;99.90
22716;DHT22;11525;51.152;4.456;2024-03-22T01:00:15;13.40;99.90
22716;DHT22;11525;51.152;4.456;2024-03-22T01:02:42;13.30;99.90
22716;DHT22;11525;51.152;4.456;2024-03-22T01:05:08;13.30;99.90
22716;DHT22;11525;51.152;4.456;2024-03-22T01:07:33;13.30;99.90
22716;DHT22;11525;51.152;4.456;2024-03-22T01:09:59;13.30;99.90
22716;DHT22;11525;51.152;4.456;2024-03-22T01:12:25;13.20;99.90
22716;DHT22;11525;51.152;4.456;2024-03-22T01:14:51;13.20;99.90
22716;DHT22;11525;51.152;4.456;2024-03-22T01:17:16;13.20;99.90
22716;DHT22;11525;51.152;4.456;2024-03-22T01:19:42;13.30;99.90
22716;DHT22;11525;51.152;4.456;2024-03-22T01:22:11;13.20;99.90
22716;DHT22;11525;51.152;4.456;2024-03-22T01:24:36;13.20;99.90
22716;DHT22;11525;51.152;4.456;2024-03-22T01:27:02;13.10;99.90
22716;DHT22;11525;51.152;4.456;2024-03-22T01:29:27;13.00;99.90
22716;DHT22;11525;51.152;4.456;2024-03-22T01:31:59;13.00;99.90
22716;DHT22;11525;51.152;4.456;2024-03-22T01:34:25;13.00;99.90
22716;DHT22;11525;51.152;4.456;2024-03-22T01:36:54;13.00;99.90
22716;DHT22;11525;51.152;4.456;2024-03-22T01:39:20;13.10;99.90
22716;DHT22;11525;51.152;4.456;2024-03-22T01:41:47;13.30;99.90
22716;DHT22;11525;51.152;4.456;2024-03-22T01:44:13;13.30;99.90
22716;DHT22;11525;51.152;4.456;2024-03-22T01:46:40;13.20;99.90
22716;DHT22;11525;51.152;4.456;2024-03-22T01:49:07;13.10;99.90
22716;DHT22;11525;51.152;4.456;2024-03-22T01:51:32;13.00;99.90
22716;DHT22;11525;51.152;4.456;2024-03-22T01:54:01;13.00;99.90
22716;DHT22;11525;51.152;4.456;2024-03-22T01:56:27;13.00;99.90
22716;DHT22;11525;51.152;4.456;2024-03-22T01:58:53;13.10;99.90
22716;DHT22;11525;51.152;4.456;2024-03-22T02:01:20;13.20;99.90
22716;DHT22;11525;51.152;4.456;2024-03-22T02:03:45;13.00;99.90
22716;DHT22;11525;51.152;4.456;2024-03-22T02:06:11;12.90;99.90
22716;DHT22;11525;51.152;4.456;2024-03-22T02:08:36;12.80;99.90
22716;DHT22;11525;51.152;4.456;2024-03-22T02:11:02;12.80;99.90
22716;DHT22;11525;51.152;4.456;2024-03-22T02:13:28;12.90;99.90
22716;DHT22;11525;51.152;4.456;2024-03-22T02:15:53;13.00;99.90
22716;DHT22;11525;51.152;4.456;2024-03-22T02:18:19;12.90;99.90
22716;DHT22;11525;51.152;4.456;2024-03-22T02:20:44;12.90;99.90
22716;DHT22;11525;51.152;4.456;2024-03-22T02:23:10;12.80;99.90
22716;DHT22;11525;51.152;4.456;2024-03-22T02:25:35;12.80;99.90
22716;DHT22;11525;51.152;4.456;2024-03-22T02:28:01;12.70;99.90
22716;DHT22;11525;51.152;4.456;2024-03-22T02:30:27;12.70;99.90
22716;DHT22;11525;51.152;4.456;2024-03-22T02:32:52;12.70;99.90
22716;DHT22;11525;51.152;4.456;2024-03-22T02:35:18;12.70;99.90
22716;DHT22;11525;51.152;4.456;2024-03-22T02:37:43;12.70;99.90
22716;DHT22;11525;51.152;4.456;2024-03-22T02:40:09;12.60;99.90
22716;DHT22;11525;51.152;4.456;2024-03-22T02:42:35;12.60;99.90
22716;DHT22;11525;51.152;4.456;2024-03-22T02:45:01;12.70;99.90
22716;DHT22;11525;51.152;4.456;2024-03-22T02:47:26;12.60;99.90
22716;DHT22;11525;51.152;4.456;2024-03-22T02:49:52;12.60;99.90
22716;DHT22;11525;51.152;4.456;2024-03-22T02:52:17;12.50;99.90
22716;DHT22;11525;51.152;4.456;2024-03-22T02:54:43;12.50;99.90
22716;DHT22;11525;51.152;4.456;2024-03-22T02:57:09;12.70;99.90
22716;DHT22;11525;51.152;4.456;2024-03-22T02:59:34;12.70;99.90
22716;DHT22;11525;51.152;4.456;2024-03-22T03:02:00;12.60;99.90
22716;DHT22;11525;51.152;4.456;2024-03-22T03:04:25;12.60;99.90
22716;DHT22;11525;51.152;4.456;2024-03-22T03:06:51;12.70;99.90
22716;DHT22;11525;51.152;4.456;2024-03-22T03:09:17;12.70;99.90
22716;DHT22;11525;51.152;4.456;2024-03-22T03:11:42;12.70;99.90
22716;DHT22;11525;51.152;4.456;2024-03-22T03:14:08;12.80;99.90
22716;DHT22;11525;51.152;4.456;2024-03-22T03:16:33;12.70;99.90
22716;DHT22;11525;51.152;4.456;2024-03-22T03:18:59;12.60;99.90
22716;DHT22;11525;51.152;4.456;2024-03-22T03:21:25;12.60;99.90
22716;DHT22;11525;51.152;4.456;2024-03-22T03:23:51;12.60;99.90
22716;DHT22;11525;51.152;4.456;2024-03-22T03:26:17;12.60;99.90
22716;DHT22;11525;51.152;4.456;2024-03-22T03:28:42;12.50;99.90
22716;DHT22;11525;51.152;4.456;2024-03-22T03:31:08;12.60;99.90
22716;DHT22;11525;51.152;4.456;2024-03-22T03:33:34;12.60;99.90
22716;DHT22;11525;51.152;4.456;2024-03-22T03:35:59;12.50;99.90
22716;DHT22;11525;51.152;4.456;2024-03-22T03:38:25;12.50;99.90
22716;DHT22;11525;51.152;4.456;2024-03-22T03:40:50;12.60;99.90
22716;DHT22;11525;51.152;4.456;2024-03-22T03:43:16;12.90;99.90
22716;DHT22;11525;51.152;4.456;2024-03-22T03:45:41;12.90;99.90
22716;DHT22;11525;51.152;4.456;2024-03-22T03:48:07;12.70;99.90
22716;DHT22;11525;51.152;4.456;2024-03-22T03:50:33;12.40;99.90
22716;DHT22;11525;51.152;4.456;2024-03-22T03:52:58;12.30;99.90
22716;DHT22;11525;51.152;4.456;2024-03-22T03:55:24;12.30;99.90
22716;DHT22;11525;51.152;4.456;2024-03-22T03:57:50;12.20;99.90
22716;DHT22;11525;51.152;4.456;2024-03-22T04:00:17;12.30;99.90
22716;DHT22;11525;51.152;4.456;2024-03-22T04:02:42;12.40;99.90
22716;DHT22;11525;51.152;4.456;2024-03-22T04:05:08;12.50;99.90
22716;DHT22;11525;51.152;4.456;2024-03-22T04:07:33;12.50;99.90
22716;DHT22;11525;51.152;4.456;2024-03-22T04:09:59;12.40;99.90
22716;DHT22;11525;51.152;4.456;2024-03-22T04:12:26;12.40;99.90
22716;DHT22;11525;51.152;4.456;2024-03-22T04:14:52;12.40;99.90
22716;DHT22;11525;51.152;4.456;2024-03-22T04:17:18;12.40;99.90
22716;DHT22;11525;51.152;4.456;2024-03-22T04:19:43;12.40;99.90
22716;DHT22;11525;51.152;4.456;2024-03-22T04:22:09;12.40;99.90
22716;DHT22;11525;51.152;4.456;2024-03-22T04:24:35;12.20;99.90
22716;DHT22;11525;51.152;4.456;2024-03-22T04:27:00;12.20;99.90
22716;DHT22;11525;51.152;4.456;2024-03-22T04:29:26;12.20;99.90
22716;DHT22;11525;51.152;4.456;2024-03-22T04:31:51;12.30;99.90
22716;DHT22;11525;51.152;4.456;2024-03-22T04:34:17;12.30;99.90
22716;DHT22;11525;51.152;4.456;2024-03-22T04:36:43;12.20;99.90
22716;DHT22;11525;51.152;4.456;2024-03-22T04:39:09;12.10;99.90
22716;DHT22;11525;51.152;4.456;2024-03-22T04:41:35;12.00;99.90
22716;DHT22;11525;51.152;4.456;2024-03-22T04:44:01;12.20;99.90
22716;DHT22;11525;51.152;4.456;2024-03-22T04:46:27;12.20;99.90
22716;DHT22;11525;51.152;4.456;2024-03-22T04:48:52;12.20;99.90
22716;DHT22;11525;51.152;4.456;2024-03-22T04:51:18;12.10;99.90
22716;DHT22;11525;51.152;4.456;2024-03-22T04:53:44;12.10;99.90
22716;DHT22;11525;51.152;4.456;2024-03-22T04:56:10;12.10;99.90
22716;DHT22;11525;51.152;4.456;2024-03-22T04:58:35;12.10;99.90
22716;DHT22;11525;51.152;4.456;2024-03-22T05:01:01;12.10;99.90
22716;DHT22;11525;51.152;4.456;2024-03-22T05:03:26;12.10;99.90
22716;DHT22;11525;51.152;4.456;2024-03-22T05:05:52;12.10;99.90
22716;DHT22;11525;51.152;4.456;2024-03-22T05:08:18;12.10;99.90
22716;DHT22;11525;51.152;4.456;2024-03-22T05:10:43;11.90;99.90
22716;DHT22;11525;51.152;4.456;2024-03-22T05:13:09;11.80;99.90
22716;DHT22;11525;51.152;4.456;2024-03-22T05:15:34;12.10;99.90
22716;DHT22;11525;51.152;4.456;2024-03-22T05:18:00;12.10;99.90
22716;DHT22;11525;51.152;4.456;2024-03-22T05:20:26;12.10;99.90
22716;DHT22;11525;51.152;4.456;2024-03-22T05:22:52;12.00;99.90
22716;DHT22;11525;51.152;4.456;2024-03-22T05:25:18;12.00;99.90
22716;DHT22;11525;51.152;4.456;2024-03-22T05:27:44;12.00;99.90
22716;DHT22;11525;51.152;4.456;2024-03-22T05:30:11;12.00;99.90
22716;DHT22;11525;51.152;4.456;2024-03-22T05:32:37;12.00;99.90
22716;DHT22;11525;51.152;4.456;2024-03-22T05:35:03;12.10;99.90
22716;DHT22;11525;51.152;4.456;2024-03-22T05:37:28;12.10;99.90
22716;DHT22;11525;51.152;4.456;2024-03-22T05:39:54;12.00;99.90
22716;DHT22;11525;51.152;4.456;2024-03-22T05:42:20;11.90;99.90
22716;DHT22;11525;51.152;4.456;2024-03-22T05:44:46;11.80;99.90
22716;DHT22;11525;51.152;4.456;2024-03-22T05:47:11;11.80;99.90
22716;DHT22;11525;51.152;4.456;2024-03-22T05:49:37;11.80;99.90
22716;DHT22;11525;51.152;4.456;2024-03-22T05:52:03;11.70;99.90
22716;DHT22;11525;51.152;4.456;2024-03-22T05:54:28;11.80;99.90
22716;DHT22;11525;51.152;4.456;2024-03-22T05:56:54;11.80;99.90
22716;DHT22;11525;51.152;4.456;2024-03-22T05:59:20;11.90;99.90
22716;DHT22;11525;51.152;4.456;2024-03-22T06:01:46;12.10;99.90
22716;DHT22;11525;51.152;4.456;2024-03-22T06:04:11;12.10;99.90
22716;DHT22;11525;51.152;4.456;2024-03-22T06:06:37;12.00;99.90
22716;DHT22;11525;51.152;4.456;2024-03-22T06:09:03;12.00;99.90
22716;DHT22;11525;51.152;4.456;2024-03-22T06:11:30;12.10;99.90
22716;DHT22;11525;51.152;4.456;2024-03-22T06:13:56;12.00;99.90
22716;DHT22;11525;51.152;4.456;2024-03-22T06:16:21;12.00;99.90
22716;DHT22;11525;51.152;4.456;2024-03-22T06:18:47;12.00;99.90
22716;DHT22;11525;51.152;4.456;2024-03-22T06:21:13;12.00;99.90
22716;DHT22;11525;51.152;4.456;2024-03-22T06:23:49;12.00;99.90
22716;DHT22;11525;51.152;4.456;2024-03-22T06:26:14;12.10;99.90
22716;DHT22;11525;51.152;4.456;2024-03-22T06:28:40;12.00;99.90
22716;DHT22;11525;51.152;4.456;2024-03-22T06:31:06;12.10;99.90
22716;DHT22;11525;51.152;4.456;2024-03-22T06:33:31;12.20;99.90
22716;DHT22;11525;51.152;4.456;2024-03-22T06:35:57;12.20;99.90
22716;DHT22;11525;51.152;4.456;2024-03-22T06:38:23;12.10;99.90
22716;DHT22;11525;51.152;4.456;2024-03-22T06:40:48;12.20;99.90
22716;DHT22;11525;51.152;4.456;2024-03-22T06:43:14;12.30;99.90
22716;DHT22;11525;51.152;4.456;2024-03-22T06:45:39;12.40;99.90
22716;DHT22;11525;51.152;4.456;2024-03-22T06:48:05;12.30;99.90
22716;DHT22;11525;51.152;4.456;2024-03-22T06:50:31;12.40;99.90
22716;DHT22;11525;51.152;4.456;2024-03-22T06:52:56;12.30;99.90
22716;DHT22;11525;51.152;4.456;2024-03-22T06:55:22;12.30;99.90
22716;DHT22;11525;51.152;4.456;2024-03-22T06:57:49;12.40;99.90
22716;DHT22;11525;51.152;4.456;2024-03-22T07:00:16;12.40;99.90
22716;DHT22;11525;51.152;4.456;2024-03-22T07:02:42;12.30;99.90
22716;DHT22;11525;51.152;4.456;2024-03-22T07:05:08;12.30;99.90
22716;DHT22;11525;51.152;4.456;2024-03-22T07:07:35;12.10;99.90
22716;DHT22;11525;51.152;4.456;2024-03-22T07:10:01;12.10;99.90
22716;DHT22;11525;51.152;4.456;2024-03-22T07:12:26;12.00;99.90
22716;DHT22;11525;51.152;4.456;2024-03-22T07:14:53;12.10;99.90
22716;DHT22;11525;51.152;4.456;2024-03-22T07:17:18;12.20;99.90
22716;DHT22;11525;51.152;4.456;2024-03-22T07:19:52;12.30;99.90
22716;DHT22;11525;51.152;4.456;2024-03-22T07:22:18;12.50;99.90
22716;DHT22;11525;51.152;4.456;2024-03-22T07:24:44;12.80;99.90
22716;DHT22;11525;51.152;4.456;2024-03-22T07:27:10;13.00;99.90
22716;DHT22;11525;51.152;4.456;2024-03-22T07:29:36;13.20;99.90
22716;DHT22;11525;51.152;4.456;2024-03-22T07:32:01;13.30;99.90
22716;DHT22;11525;51.152;4.456;2024-03-22T07:34:28;13.20;99.90
22716;DHT22;11525;51.152;4.456;2024-03-22T07:36:54;13.10;99.90
22716;DHT22;11525;51.152;4.456;2024-03-22T07:39:20;13.20;99.90
22716;DHT22;11525;51.152;4.456;2024-03-22T07:41:45;13.40;99.90
22716;DHT22;11525;51.152;4.456;2024-03-22T07:44:11;13.60;99.90
22716;DHT22;11525;51.152;4.456;2024-03-22T07:46:37;13.50;99.90
22716;DHT22;11525;51.152;4.456;2024-03-22T07:49:02;13.50;99.90
22716;DHT22;11525;51.152;4.456;2024-03-22T07:51:30;13.60;99.90
22716;DHT22;11525;51.152;4.456;2024-03-22T07:53:55;13.70;99.90
22716;DHT22;11525;51.152;4.456;2024-03-22T07:56:21;13.80;99.90
22716;DHT22;11525;51.152;4.456;2024-03-22T07:58:47;13.80;99.90
22716;DHT22;11525;51.152;4.456;2024-03-22T08:01:13;14.10;99.90
22716;DHT22;11525;51.152;4.456;2024-03-22T08:03:38;14.00;99.90
22716;DHT22;11525;51.152;4.456;2024-03-22T08:06:04;13.90;99.90
22716;DHT22;11525;51.152;4.456;2024-03-22T08:08:30;14.00;99.90
22716;DHT22;11525;51.152;4.456;2024-03-22T08:10:55;13.90;99.90
22716;DHT22;11525;51.152;4.456;2024-03-22T08:13:21;13.60;99.90
22716;DHT22;11525;51.152;4.456;2024-03-22T08:15:47;13.40;99.90
22716;DHT22;11525;51.152;4.456;2024-03-22T08:18:12;13.40;99.90
22716;DHT22;11525;51.152;4.456;2024-03-22T08:20:38;13.40;99.90
22716;DHT22;11525;51.152;4.456;2024-03-22T08:23:05;13.60;99.90
22716;DHT22;11525;51.152;4.456;2024-03-22T08:25:30;13.90;99.90
22716;DHT22;11525;51.152;4.456;2024-03-22T08:27:56;14.00;99.90
22716;DHT22;11525;51.152;4.456;2024-03-22T08:30:24;13.90;99.90
22716;DHT22;11525;51.152;4.456;2024-03-22T08:32:50;13.80;99.90
22716;DHT22;11525;51.152;4.456;2024-03-22T08:35:16;13.70;99.90
22716;DHT22;11525;51.152;4.456;2024-03-22T08:37:42;13.80;99.90
22716;DHT22;11525;51.152;4.456;2024-03-22T08:40:08;13.80;99.90
22716;DHT22;11525;51.152;4.456;2024-03-22T08:42:33;14.10;99.90
22716;DHT22;11525;51.152;4.456;2024-03-22T08:44:59;14.50;99.90
22716;DHT22;11525;51.152;4.456;2024-03-22T08:47:25;14.60;99.90
22716;DHT22;11525;51.152;4.456;2024-03-22T08:49:51;14.60;99.90
22716;DHT22;11525;51.152;4.456;2024-03-22T08:52:16;14.60;99.90
22716;DHT22;11525;51.152;4.456;2024-03-22T08:54:42;14.60;99.90
22716;DHT22;11525;51.152;4.456;2024-03-22T08:57:08;14.60;99.90
22716;DHT22;11525;51.152;4.456;2024-03-22T08:59:33;14.60;99.90
22716;DHT22;11525;51.152;4.456;2024-03-22T09:02:00;14.40;99.90
22716;DHT22;11525;51.152;4.456;2024-03-22T09:04:26;14.50;99.90
22716;DHT22;11525;51.152;4.456;2024-03-22T09:06:52;14.50;99.90
22716;DHT22;11525;51.152;4.456;2024-03-22T09:09:17;14.40;99.90
22716;DHT22;11525;51.152;4.456;2024-03-22T09:11:43;14.40;99.90
22716;DHT22;11525;51.152;4.456;2024-03-22T09:14:09;14.20;99.90
22716;DHT22;11525;51.152;4.456;2024-03-22T09:16:35;14.20;99.90
22716;DHT22;11525;51.152;4.456;2024-03-22T09:19:00;14.20;99.90
22716;DHT22;11525;51.152;4.456;2024-03-22T09:21:26;14.20;99.90
22716;DHT22;11525;51.152;4.456;2024-03-22T09:23:52;14.30;99.90
22716;DHT22;11525;51.152;4.456;2024-03-22T09:26:17;14.30;99.90
22716;DHT22;11525;51.152;4.456;2024-03-22T09:28:46;14.30;99.90
22716;DHT22;11525;51.152;4.456;2024-03-22T09:31:11;14.30;99.90
22716;DHT22;11525;51.152;4.456;2024-03-22T09:33:37;14.30;99.90
22716;DHT22;11525;51.152;4.456;2024-03-22T09:36:03;14.00;99.90
22716;DHT22;11525;51.152;4.456;2024-03-22T09:38:28;14.10;99.90
22716;DHT22;11525;51.152;4.456;2024-03-22T09:40:54;14.20;99.90
22716;DHT22;11525;51.152;4.456;2024-03-22T09:43:21;14.20;99.90
22716;DHT22;11525;51.152;4.456;2024-03-22T09:45:48;14.40;99.90
22716;DHT22;11525;51.152;4.456;2024-03-22T09:48:18;14.60;99.90
22716;DHT22;11525;51.152;4.456;2024-03-22T09:50:46;14.60;99.90
22716;DHT22;11525;51.152;4.456;2024-03-22T09:53:13;14.60;99.90
22716;DHT22;11525;51.152;4.456;2024-03-22T09:55:39;14.40;99.90
22716;DHT22;11525;51.152;4.456;2024-03-22T09:58:12;14.30;99.90
22716;DHT22;11525;51.152;4.456;2024-03-22T10:00:38;14.30;99.90
22716;DHT22;11525;51.152;4.456;2024-03-22T10:03:04;14.30;99.90
22716;DHT22;11525;51.152;4.456;2024-03-22T10:05:31;14.30;99.90
22716;DHT22;11525;51.152;4.456;2024-03-22T10:07:57;14.30;99.90
22716;DHT22;11525;51.152;4.456;2024-03-22T10:10:23;14.40;99.90
22716;DHT22;11525;51.152;4.456;2024-03-22T10:12:49;14.40;99.90
22716;DHT22;11525;51.152;4.456;2024-03-22T10:15:14;14.30;99.90
22716;DHT22;11525;51.152;4.456;2024-03-22T10:17:42;14.00;99.90
22716;DHT22;11525;51.152;4.456;2024-03-22T10:20:08;14.10;99.90
22716;DHT22;11525;51.152;4.456;2024-03-22T10:22:59;14.00;99.90
22716;DHT22;11525;51.152;4.456;2024-03-22T10:25:29;13.90;99.90
22716;DHT22;11525;51.152;4.456;2024-03-22T10:27:55;13.80;99.90
22716;DHT22;11525;51.152;4.456;2024-03-22T10:30:22;13.90;99.90
22716;DHT22;11525;51.152;4.456;2024-03-22T10:32:48;13.80;99.90
22716;DHT22;11525;51.152;4.456;2024-03-22T10:35:15;13.80;99.90
22716;DHT22;11525;51.152;4.456;2024-03-22T10:37:41;13.90;99.90
22716;DHT22;11525;51.152;4.456;2024-03-22T10:40:07;13.90;99.90
22716;DHT22;11525;51.152;4.456;2024-03-22T10:42:38;14.00;99.90
22716;DHT22;11525;51.152;4.456;2024-03-22T10:45:05;14.20;99.90
22716;DHT22;11525;51.152;4.456;2024-03-22T10:47:32;14.00;99.90
22716;DHT22;11525;51.152;4.456;2024-03-22T10:50:09;13.90;99.90
22716;DHT22;11525;51.152;4.456;2024-03-22T10:53:03;13.90;99.90
22716;DHT22;11525;51.152;4.456;2024-03-22T10:55:35;14.00;99.90
22716;DHT22;11525;51.152;4.456;2024-03-22T10:58:02;13.90;99.90
22716;DHT22;11525;51.152;4.456;2024-03-22T11:00:32;13.90;99.90
22716;DHT22;11525;51.152;4.456;2024-03-22T11:02:59;13.80;99.90
22716;DHT22;11525;51.152;4.456;2024-03-22T11:05:26;13.80;99.90
22716;DHT22;11525;51.152;4.456;2024-03-22T11:08:02;13.60;99.90
22716;DHT22;11525;51.152;4.456;2024-03-22T11:10:30;13.70;99.90
22716;DHT22;11525;51.152;4.456;2024-03-22T11:13:04;13.70;99.90
22716;DHT22;11525;51.152;4.456;2024-03-22T11:15:30;13.80;99.90
22716;DHT22;11525;51.152;4.456;2024-03-22T11:17:57;13.70;99.90
22716;DHT22;11525;51.152;4.456;2024-03-22T11:20:22;13.50;99.90
22716;DHT22;11525;51.152;4.456;2024-03-22T11:22:48;13.40;99.90
22716;DHT22;11525;51.152;4.456;2024-03-22T11:25:14;13.50;99.90
22716;DHT22;11525;51.152;4.456;2024-03-22T11:27:40;13.40;99.90
22716;DHT22;11525;51.152;4.456;2024-03-22T11:30:07;13.60;99.90
22716;DHT22;11525;51.152;4.456;2024-03-22T11:32:33;13.70;99.90
22716;DHT22;11525;51.152;4.456;2024-03-22T11:35:09;13.60;99.90
22716;DHT22;11525;51.152;4.456;2024-03-22T11:37:35;13.80;99.90
22716;DHT22;11525;51.152;4.456;2024-03-22T11:40:01;13.80;99.90
22716;DHT22;11525;51.152;4.456;2024-03-22T11:42:32;13.60;99.90
22716;DHT22;11525;51.152;4.456;2024-03-22T11:44:58;13.70;99.90
22716;DHT22;11525;51.152;4.456;2024-03-22T11:47:23;13.60;99.90
22716;DHT22;11525;51.152;4.456;2024-03-22T11:49:50;13.60;99.90
22716;DHT22;11525;51.152;4.456;2024-03-22T11:52:15;13.50;99.90
22716;DHT22;11525;51.152;4.456;2024-03-22T11:54:41;13.40;99.90
22716;DHT22;11525;51.152;4.456;2024-03-22T11:57:09;13.50;99.90
22716;DHT22;11525;51.152;4.456;2024-03-22T11:59:34;13.50;99.90
22716;DHT22;11525;51.152;4.456;2024-03-22T12:02:00;13.60;99.90
22716;DHT22;11525;51.152;4.456;2024-03-22T12:04:26;13.30;99.90
22716;DHT22;11525;51.152;4.456;2024-03-22T12:06:51;13.50;99.90
22716;DHT22;11525;51.152;4.456;2024-03-22T12:09:18;13.50;99.90
22716;DHT22;11525;51.152;4.456;2024-03-22T12:11:44;13.50;99.90
22716;DHT22;11525;51.152;4.456;2024-03-22T12:14:09;13.60;99.90
22716;DHT22;11525;51.152;4.456;2024-03-22T12:16:35;13.60;99.90
22716;DHT22;11525;51.152;4.456;2024-03-22T12:19:01;13.70;99.90
22716;DHT22;11525;51.152;4.456;2024-03-22T12:21:28;13.80;99.90
22716;DHT22;11525;51.152;4.456;2024-03-22T12:23:54;13.70;99.90
22716;DHT22;11525;51.152;4.456;2024-03-22T12:26:19;13.50;99.90
22716;DHT22;11525;51.152;4.456;2024-03-22T12:28:45;13.60;99.90
22716;DHT22;11525;51.152;4.456;2024-03-22T12:31:11;13.60;99.90
22716;DHT22;11525;51.152;4.456;2024-03-22T12:33:37;13.70;99.90
22716;DHT22;11525;51.152;4.456;2024-03-22T12:36:04;13.80;99.90
22716;DHT22;11525;51.152;4.456;2024-03-22T12:38:29;13.90;99.90
22716;DHT22;11525;51.152;4.456;2024-03-22T12:40:55;14.00;99.90
22716;DHT22;11525;51.152;4.456;2024-03-22T12:43:21;13.90;99.90
22716;DHT22;11525;51.152;4.456;2024-03-22T12:45:47;13.80;99.90
22716;DHT22;11525;51.152;4.456;2024-03-22T12:48:12;14.00;99.90
22716;DHT22;11525;51.152;4.456;2024-03-22T12:50:38;13.90;99.90
22716;DHT22;11525;51.152;4.456;2024-03-22T12:53:04;13.60;99.90
22716;DHT22;11525;51.152;4.456;2024-03-22T12:55:30;13.40;99.90
22716;DHT22;11525;51.152;4.456;2024-03-22T12:57:59;13.50;99.90
22716;DHT22;11525;51.152;4.456;2024-03-22T13:00:25;13.60;99.90
22716;DHT22;11525;51.152;4.456;2024-03-22T13:02:51;13.60;99.90
22716;DHT22;11525;51.152;4.456;2024-03-22T13:05:17;13.40;99.90
22716;DHT22;11525;51.152;4.456;2024-03-22T13:07:43;13.60;99.90
22716;DHT22;11525;51.152;4.456;2024-03-22T13:10:09;13.60;99.90
22716;DHT22;11525;51.152;4.456;2024-03-22T13:12:35;13.40;99.90
22716;DHT22;11525;51.152;4.456;2024-03-22T13:15:02;13.30;99.90
22716;DHT22;11525;51.152;4.456;2024-03-22T13:17:28;13.30;99.90
22716;DHT22;11525;51.152;4.456;2024-03-22T13:19:53;13.20;99.90
22716;DHT22;11525;51.152;4.456;2024-03-22T13:22:19;13.10;99.90
22716;DHT22;11525;51.152;4.456;2024-03-22T13:24:45;13.00;99.90
22716;DHT22;11525;51.152;4.456;2024-03-22T13:27:12;13.00;99.90
22716;DHT22;11525;51.152;4.456;2024-03-22T13:29:40;13.00;99.90
22716;DHT22;11525;51.152;4.456;2024-03-22T13:32:07;13.00;99.90
22716;DHT22;11525;51.152;4.456;2024-03-22T13:34:36;12.90;99.90
22716;DHT22;11525;51.152;4.456;2024-03-22T13:37:03;12.80;99.90
22716;DHT22;11525;51.152;4.456;2024-03-22T13:39:29;12.80;99.90
22716;DHT22;11525;51.152;4.456;2024-03-22T13:41:58;12.90;99.90
22716;DHT22;11525;51.152;4.456;2024-03-22T13:44:24;12.90;99.90
22716;DHT22;11525;51.152;4.456;2024-03-22T13:46:50;13.00;99.90
22716;DHT22;11525;51.152;4.456;2024-03-22T13:49:17;12.90;99.90
22716;DHT22;11525;51.152;4.456;2024-03-22T13:51:43;12.70;99.90
22716;DHT22;11525;51.152;4.456;2024-03-22T13:54:10;12.70;99.90
22716;DHT22;11525;51.152;4.456;2024-03-22T13:56:37;12.70;99.90
22716;DHT22;11525;51.152;4.456;2024-03-22T13:59:04;12.60;99.90
22716;DHT22;11525;51.152;4.456;2024-03-22T14:01:35;12.70;99.90
22716;DHT22;11525;51.152;4.456;2024-03-22T14:04:01;12.70;99.90
22716;DHT22;11525;51.152;4.456;2024-03-22T14:06:29;12.70;99.90
22716;DHT22;11525;51.152;4.456;2024-03-22T14:08:55;12.80;99.90
22716;DHT22;11525;51.152;4.456;2024-03-22T14:11:28;12.70;99.90
22716;DHT22;11525;51.152;4.456;2024-03-22T14:13:56;12.70;99.90
22716;DHT22;11525;51.152;4.456;2024-03-22T14:16:22;12.80;99.90
22716;DHT22;11525;51.152;4.456;2024-03-22T14:18:47;12.90;99.90
22716;DHT22;11525;51.152;4.456;2024-03-22T14:21:15;12.90;99.90
22716;DHT22;11525;51.152;4.456;2024-03-22T14:23:46;13.00;99.90
22716;DHT22;11525;51.152;4.456;2024-03-22T14:26:12;13.00;99.90
22716;DHT22;11525;51.152;4.456;2024-03-22T14:28:38;12.90;99.90
22716;DHT22;11525;51.152;4.456;2024-03-22T14:31:08;12.80;99.90
22716;DHT22;11525;51.152;4.456;2024-03-22T14:33:37;12.80;99.90
22716;DHT22;11525;51.152;4.456;2024-03-22T14:36:04;12.60;99.90
22716;DHT22;11525;51.152;4.456;2024-03-22T14:38:30;12.60;99.90
22716;DHT22;11525;51.152;4.456;2024-03-22T14:40:56;12.50;99.90
22716;DHT22;11525;51.152;4.456;2024-03-22T14:43:24;12.50;99.90
22716;DHT22;11525;51.152;4.456;2024-03-22T14:45:50;12.70;99.90
22716;DHT22;11525;51.152;4.456;2024-03-22T14:48:19;12.70;99.90
22716;DHT22;11525;51.152;4.456;2024-03-22T14:50:44;12.60;99.90
22716;DHT22;11525;51.152;4.456;2024-03-22T14:53:10;12.70;99.90
22716;DHT22;11525;51.152;4.456;2024-03-22T14:55:37;12.90;99.90
22716;DHT22;11525;51.152;4.456;2024-03-22T14:58:04;13.10;99.90
22716;DHT22;11525;51.152;4.456;2024-03-22T15:00:30;13.10;99.90
22716;DHT22;11525;51.152;4.456;2024-03-22T15:02:56;13.30;99.90
22716;DHT22;11525;51.152;4.456;2024-03-22T15:05:21;13.30;99.90
22716;DHT22;11525;51.152;4.456;2024-03-22T15:07:47;13.20;99.90
22716;DHT22;11525;51.152;4.456;2024-03-22T15:10:13;13.20;99.90
22716;DHT22;11525;51.152;4.456;2024-03-22T15:12:38;13.10;99.90
22716;DHT22;11525;51.152;4.456;2024-03-22T15:15:05;12.90;99.90
22716;DHT22;11525;51.152;4.456;2024-03-22T15:17:31;12.90;99.90
22716;DHT22;11525;51.152;4.456;2024-03-22T15:19:56;12.60;99.90
22716;DHT22;11525;51.152;4.456;2024-03-22T15:22:22;12.40;99.90
22716;DHT22;11525;51.152;4.456;2024-03-22T15:24:51;12.30;99.90